VTSH  Songkhla Airport

Add Bookmark

Thailand

Status IATA
Operational SGZ
Latitude Longitude
7° 11' 11" N 100° 36' 28" E
7.186560 100.608002
Local (DST + 7) UTC (GMT + 7)
Jul 30, 2014 05:52 Jul 29, 2014 22:52
Sunrise-Sunset Local UTC
Begin Civil Twilight 05:47 22:47
Sunrise 06:09 23:09
Sunset 06:38 11:38
End Civil Twilight 07:00 12:00

Current Weather

METAR Observed VFR
VTSH 290300Z 25006KT 9999 FEW020 BKN300 31/24 Q1009 A2982 Tue, Jul 29, 2014 @ 03:00 UTC
(19 Hours, 52 Minutes ago)
Visual Flight Rules

Decoded METAR

Wind Visibility Clouds Conditions
250° at 6 knots (11 kph) 10 km or more
  • Few at 2,000' AGL
  • Broken at 30,000' AGL
  • No significant weather
Temperatures Readings Precipitation
Current Temp 31°C (88°F)
Dewpoint 24°C (75°F)
Heat Index 37°C (98°F)
Humidity 66%
Altimeter 29.79"Hg
Sea Level Pressure 1009mb
Field Elevation 16.4'
None Recorded

Additional weather within a 92.6km radius of VTSH

Map ICAO Location
VTSS 36.9km S (220°)

24 Hour Weather History

Loading
-

24 Hour Weather Graphs

Loading
-

CheckWX.com is intended as a tool to help pilots better visualize weather data. It is not intended as a substitute for an official weather briefing obtained from a Flight Service Station. CheckWX.com does not meet the FAA requirements for an official pre-flight weather briefing. Therefore, it's important that pilots still call and obtain an official FSS pre-flight weather briefing.